Airfield :







YOU CAN JOIN US ON...

 
LOGIN :

Register | Disclaimer

   EN    FR    IT 

 









Legend :    VFR   Marginal VFR   IFR   Intensive IFR   Very Intensive IFR
Visi :
Ceiling :
>= 8 km
>= 3000ft
5 to 8 km
1000 to 3000 ft
1500m to 5 km
500 to 1000 ft
800 to 1500m
200 to 500 ft
< 800m
< 200 ft
Symbols :   Thunderstorms  Fog  Heavy snow  Heavy precipitations  Wind > 20 kt






- Airport Elevation : 60 ft
- IATA code : AUA


TNCA - Reina beatrix It.

CURRENT METAR :
  • 142000Z 09020KT 9999 FEW025 32/23 Q1012 NOSIG

EXPIRED METARs :
  • 141900Z 08021KT 9999 FEW025 31/24 Q1012 NOSIG
  • 141800Z 08020KT 9999 BKN023 32/25 Q1013 NOSIG

TAF TAF TNCA
Valid from the 14 at 18:00 until the 15 at 18:00 UTC


141715Z 1418/1518 09019KT 9999 SCT020
TNCF FIR / North America



MET'MAP, your aeronautical weather chart ! - Copyright ORBIFLY December 2007 - Disclaimer

ORBIFLY MET'MAP TEAM :

Programming & Development : Alexandra Zaïnal
Concept & original design : Baudouin d'Aumeries
Assistance for programming : Marc-Olivier Méhu
Technical & hardware support : Manuel Goepfert

Contact : metmap@orbifly.com




SOURCES & CREDITS :

   NOAA